Time;durP1;ratioP1;P1;durP2;ratioP2;P2;SDS_P1;SDS_P2;PMS_P1;PMS_P2;Temp;Humidity;BMP_temperature;BMP_pressure;BME280_temperature;BME280_humidity;BME280_pressure;Samples;Min_cycle;Max_cycle;Signal;HPM_P1;HPM_P2
2022/06/23 00:03:44;;;;;;;11.10;6.45;;;;;;;20.49;89.27;99411.66;12213320;19;20487;-81
2022/06/23 00:07:51;;;;;;;10.13;6.95;;;;;;;20.50;89.04;99407.75;12182863;19;20476;-82
2022/06/23 00:11:53;;;;;;;13.30;7.85;;;;;;;20.46;89.00;99393.59;12207316;19;20003;-81
2022/06/23 00:15:55;;;;;;;12.85;7.55;;;;;;;20.47;88.84;99389.63;12196479;19;20015;-81
2022/06/23 00:20:00;;;;;;;11.98;7.35;;;;;;;20.46;88.97;99401.97;12210409;19;20085;-81
2022/06/23 00:24:11;;;;;;;9.27;6.82;;;;;;;20.49;88.69;99394.88;12216115;19;20014;-81
2022/06/23 00:28:17;;;;;;;10.63;7.03;;;;;;;20.49;88.62;99383.69;12190836;19;20069;-82
2022/06/23 00:32:18;;;;;;;11.90;6.90;;;;;;;20.47;88.71;99380.41;12210685;19;20007;-82
2022/06/23 00:36:27;;;;;;;11.60;7.10;;;;;;;20.45;88.67;99377.91;12208451;19;20015;-81
2022/06/23 00:40:29;;;;;;;14.15;6.35;;;;;;;20.43;88.56;99373.78;12189644;19;20468;-82
2022/06/23 00:44:43;;;;;;;12.70;6.68;;;;;;;20.42;88.63;99383.34;12212190;19;20382;-82
2022/06/23 00:48:53;;;;;;;11.20;7.10;;;;;;;20.36;88.91;99384.66;12213814;19;20050;-82
2022/06/23 00:52:58;;;;;;;12.50;7.07;;;;;;;20.31;89.30;99380.03;12195490;19;20056;-82
2022/06/23 00:57:06;;;;;;;14.80;7.47;;;;;;;20.29;89.88;99373.13;12210170;19;20014;-81
2022/06/23 01:01:39;;;;;;;16.00;8.00;;;;;;;20.30;89.81;99370.00;12192265;19;20010;-81
2022/06/23 01:06:06;;;;;;;9.23;6.82;;;;;;;20.29;89.72;99368.34;12211436;19;20014;-82
2022/06/23 01:10:15;;;;;;;12.77;7.35;;;;;;;20.26;89.88;99367.03;12190526;19;20021;-81
2022/06/23 01:14:29;;;;;;;13.63;7.20;;;;;;;20.22;89.83;99359.59;12216105;19;20788;-81
2022/06/23 01:18:35;;;;;;;14.88;8.13;;;;;;;20.13;90.38;99350.34;12209201;19;20007;-81
2022/06/23 01:22:53;;;;;;;12.90;8.48;;;;;;;20.02;91.29;99350.66;12191306;19;20119;-81
2022/06/23 01:27:16;;;;;;;14.38;8.10;;;;;;;19.90;92.26;99367.25;12214666;19;20836;-81
2022/06/23 01:31:24;;;;;;;11.88;8.00;;;;;;;19.87;91.89;99365.09;12190452;19;20009;-81
2022/06/23 01:35:36;;;;;;;13.32;8.98;;;;;;;19.77;92.22;99356.97;12207022;19;20031;-81
2022/06/23 01:39:49;;;;;;;14.40;8.73;;;;;;;19.69;93.12;99360.53;12213850;19;20018;-80
2022/06/23 01:44:19;;;;;;;13.35;8.15;;;;;;;19.64;93.24;99367.09;12192983;19;20801;-80
2022/06/23 01:48:52;;;;;;;11.82;7.85;;;;;;;19.57;93.53;99375.06;12203496;19;20489;-81
2022/06/23 01:53:10;;;;;;;13.90;8.20;;;;;;;19.52;93.51;99380.81;12192641;19;20077;-81
2022/06/23 01:57:38;;;;;;;12.80;8.00;;;;;;;19.46;94.16;99371.75;12199190;19;20038;-81
2022/06/23 02:01:56;;;;;;;12.82;8.05;;;;;;;19.36;95.03;99369.19;12181313;19;20014;-81
2022/06/23 02:06:16;;;;;;;12.05;8.05;;;;;;;19.23;95.99;99370.94;12212698;19;20471;-80
2022/06/23 02:10:20;;;;;;;14.90;8.23;;;;;;;19.15;96.82;99373.66;12172775;19;20011;-80
2022/06/23 02:15:16;;;;;;;14.00;8.30;;;;;;;19.05;97.73;99363.59;12206370;19;20015;-80
2022/06/23 02:19:35;;;;;;;13.35;8.77;;;;;;;18.98;98.39;99368.78;12171240;19;20078;-80
2022/06/23 02:23:53;;;;;;;15.93;8.45;;;;;;;18.92;98.75;99373.66;12204937;19;20054;-80
2022/06/23 02:28:11;;;;;;;15.02;8.13;;;;;;;18.88;98.45;99384.63;12206259;19;20002;-80
2022/06/23 02:32:23;;;;;;;13.02;8.18;;;;;;;18.86;98.69;99397.28;12189282;19;20019;-80
2022/06/23 02:36:41;;;;;;;14.50;8.43;;;;;;;18.83;99.07;99403.47;12198443;19;20027;-81
2022/06/23 02:40:48;;;;;;;15.63;10.02;;;;;;;18.73;100.00;99412.91;12186696;19;20038;-80
2022/06/23 02:45:32;;;;;;;16.42;9.02;;;;;;;18.70;100.00;99415.47;12211320;19;20626;-80
2022/06/23 02:50:00;;;;;;;13.50;8.32;;;;;;;18.68;100.00;99407.41;12183458;19;20017;-80
2022/06/23 02:54:02;;;;;;;13.05;8.70;;;;;;;18.66;100.00;99418.88;12199062;19;20010;-80
2022/06/23 02:58:12;;;;;;;12.82;8.75;;;;;;;18.66;100.00;99430.03;12186308;19;20110;-80
2022/06/23 03:02:25;;;;;;;15.68;8.38;;;;;;;18.68;100.00;99427.78;12205260;19;20407;-80
2022/06/23 03:06:40;;;;;;;14.88;8.35;;;;;;;18.70;100.00;99429.41;12201859;19;20038;-80
2022/06/23 03:10:49;;;;;;;14.27;8.88;;;;;;;18.68;100.00;99436.16;12182844;19;20089;-80
2022/06/23 03:15:16;;;;;;;14.60;8.82;;;;;;;18.64;100.00;99437.88;12202731;19;20010;-80
2022/06/23 03:19:26;;;;;;;14.77;9.32;;;;;;;18.60;100.00;99438.84;12181865;19;20061;-80
2022/06/23 03:23:48;;;;;;;12.40;8.43;;;;;;;18.56;100.00;99432.22;12204357;19;20026;-80
2022/06/23 03:27:55;;;;;;;13.02;8.73;;;;;;;18.53;100.00;99430.91;12200144;19;20002;-81
2022/06/23 03:32:18;;;;;;;11.85;8.07;;;;;;;18.52;100.00;99434.81;12189694;19;20046;-80
2022/06/23 03:36:24;;;;;;;19.70;8.77;;;;;;;18.52;100.00;99434.00;12200310;19;20014;-80
2022/06/23 03:45:13;;;;;;;14.82;8.98;;;;;;;18.54;100.00;99428.94;12204368;19;20139;-79
2022/06/23 03:49:24;;;;;;;17.58;9.30;;;;;;;18.55;100.00;99428.59;12179998;19;20006;-80
2022/06/23 03:53:31;;;;;;;13.15;8.57;;;;;;;18.56;100.00;99433.06;12206679;19;20014;-81
2022/06/23 03:57:41;;;;;;;13.70;9.35;;;;;;;18.59;100.00;99439.97;12210077;19;20010;-80
2022/06/23 04:01:50;;;;;;;14.98;9.40;;;;;;;18.61;100.00;99443.28;12189242;19;20477;-80
2022/06/23 04:05:55;;;;;;;13.85;8.98;;;;;;;18.61;100.00;99452.47;12206960;19;20590;-80
2022/06/23 04:10:03;;;;;;;13.85;8.52;;;;;;;18.60;100.00;99458.38;12214603;19;20007;-81
2022/06/23 04:14:37;;;;;;;14.02;8.68;;;;;;;18.61;100.00;99455.25;12199234;19;20006;-80
2022/06/23 04:18:46;;;;;;;15.38;9.20;;;;;;;18.65;100.00;99455.50;12216800;19;20038;-80
2022/06/23 04:23:03;;;;;;;12.05;8.07;;;;;;;18.67;100.00;99464.34;12189945;19;20014;-81
2022/06/23 04:27:15;;;;;;;13.32;8.98;;;;;;;18.71;100.00;99462.59;12213764;19;20015;-81
2022/06/23 04:31:28;;;;;;;13.55;9.00;;;;;;;18.72;100.00;99461.47;12197662;19;21423;-81
2022/06/23 04:35:36;;;;;;;17.73;9.25;;;;;;;18.75;100.00;99471.22;12213309;19;20491;-81
2022/06/23 04:39:45;;;;;;;16.13;10.60;;;;;;;18.78;100.00;99481.75;12218634;19;20017;-81
2022/06/23 04:43:52;;;;;;;15.38;9.23;;;;;;;18.82;100.00;99479.97;12189174;19;20048;-81
2022/06/23 04:47:58;;;;;;;14.18;9.93;;;;;;;18.87;100.00;99479.88;12214934;19;20006;-81
2022/06/23 04:52:26;;;;;;;15.43;9.68;;;;;;;18.92;100.00;99479.75;12190717;19;20026;-81
2022/06/23 04:56:38;;;;;;;17.17;9.70;;;;;;;19.03;100.00;99481.16;12210205;19;20010;-81
2022/06/23 05:00:46;;;;;;;14.38;9.82;;;;;;;19.09;100.00;99481.88;12204691;19;20007;-82
2022/06/23 05:05:22;;;;;;;13.02;9.70;;;;;;;19.12;100.00;99487.66;12189549;19;20031;-82
2022/06/23 05:09:26;;;;;;;15.73;10.52;;;;;;;19.21;100.00;99484.13;12212734;19;20397;-82
2022/06/23 05:13:36;;;;;;;15.48;9.95;;;;;;;19.31;100.00;99486.69;12192514;19;20014;-81
2022/06/23 05:17:48;;;;;;;18.23;11.02;;;;;;;19.39;100.00;99501.84;12218171;19;20015;-81
2022/06/23 05:21:53;;;;;;;21.00;13.32;;;;;;;19.44;100.00;99498.94;12216510;19;20579;-81
2022/06/23 05:26:04;;;;;;;15.98;11.57;;;;;;;19.52;100.00;99493.44;12185241;19;20114;-81
2022/06/23 05:30:25;;;;;;;21.40;15.35;;;;;;;19.62;100.00;99505.50;12213524;19;20014;-83
2022/06/23 05:34:32;;;;;;;25.17;14.57;;;;;;;19.66;100.00;99501.78;12179176;19;20360;-80
2022/06/23 05:38:39;;;;;;;20.50;15.00;;;;;;;19.74;100.00;99502.97;12177510;19;20007;-83
2022/06/23 05:42:47;;;;;;;21.80;15.27;;;;;;;19.87;100.00;99501.25;12212638;19;20074;-83
2022/06/23 05:46:50;;;;;;;24.52;15.65;;;;;;;19.96;100.00;99502.97;12178849;19;20515;-83
2022/06/23 05:51:07;;;;;;;23.23;13.88;;;;;;;20.08;100.00;99501.53;12211059;19;20635;-83
2022/06/23 05:55:19;;;;;;;24.05;14.00;;;;;;;20.20;100.00;99499.00;12187674;19;20489;-82
2022/06/23 05:59:47;;;;;;;23.58;14.23;;;;;;;20.36;100.00;99496.59;12211966;19;20015;-83
2022/06/23 06:04:04;;;;;;;20.92;13.02;;;;;;;20.57;100.00;99500.47;12206784;19;19999;-82
2022/06/23 06:08:18;;;;;;;22.77;13.30;;;;;;;20.77;100.00;99503.84;12187790;19;20007;-82
2022/06/23 06:12:41;;;;;;;23.50;12.85;;;;;;;20.95;100.00;99497.13;12210409;19;20018;-83
2022/06/23 06:16:43;;;;;;;25.02;13.02;;;;;;;21.10;100.00;99501.44;12181316;19;20098;-82
2022/06/23 06:20:46;;;;;;;18.23;12.30;;;;;;;21.22;100.00;99498.00;12205883;19;20018;-83
2022/06/23 06:24:53;;;;;;;21.20;13.07;;;;;;;21.39;99.80;99500.84;12205785;19;20082;-82
2022/06/23 06:28:59;;;;;;;22.25;13.40;;;;;;;21.61;98.50;99497.84;12180539;19;20519;-82
2022/06/23 06:33:01;;;;;;;25.08;12.65;;;;;;;21.81;96.91;99485.13;12209963;19;20499;-83
2022/06/23 06:37:07;;;;;;;24.95;12.30;;;;;;;22.04;96.09;99490.50;12183098;19;20070;-83
2022/06/23 06:41:10;;;;;;;24.60;13.07;;;;;;;22.22;94.82;99486.53;12209561;19;20006;-82
2022/06/23 06:45:18;;;;;;;24.60;13.25;;;;;;;22.26;94.17;99492.28;12208233;19;20430;-83
2022/06/23 06:49:22;;;;;;;20.42;11.45;;;;;;;22.35;93.74;99492.28;12184627;19;20087;-83
2022/06/23 06:53:35;;;;;;;21.50;12.88;;;;;;;22.54;93.42;99487.03;12205388;19;20007;-82
2022/06/23 06:57:43;;;;;;;22.17;11.48;;;;;;;22.68;92.38;99479.22;12203705;19;20007;-83
2022/06/23 07:02:13;;;;;;;19.27;11.52;;;;;;;22.86;91.62;99482.75;12182903;19;20007;-83
2022/06/23 07:11:37;;;;;;;15.60;11.02;;;;;;;23.54;88.34;99487.41;12213801;19;20040;-83
2022/06/23 07:16:54;;;;;;;15.82;10.68;;;;;;;23.97;86.41;99484.19;12208208;19;20074;-83
2022/06/23 07:22:11;;;;;;;16.63;10.95;;;;;;;24.24;84.35;99488.38;12207447;19;20103;-83
2022/06/23 07:27:29;;;;;;;14.60;10.47;;;;;;;24.56;82.75;99480.19;12180031;19;20069;-83
2022/06/23 08:22:36;;;;;;;15.25;7.57;;;;;;;27.31;67.24;99441.84;12209326;19;20001;-82
2022/06/23 08:26:41;;;;;;;13.73;7.18;;;;;;;27.77;65.72;99446.81;12211620;19;20373;-83
2022/06/23 08:30:46;;;;;;;14.55;7.65;;;;;;;27.92;64.96;99441.06;12218714;19;20002;-82
2022/06/23 08:34:59;;;;;;;16.23;7.80;;;;;;;27.80;65.22;99441.25;12190031;19;20026;-82
2022/06/23 08:39:10;;;;;;;13.73;8.00;;;;;;;27.58;63.88;99437.16;12209014;19;20007;-82
2022/06/23 08:43:40;;;;;;;14.65;7.93;;;;;;;27.50;63.28;99432.53;12190869;19;20817;-82
2022/06/23 08:47:49;;;;;;;12.43;6.75;;;;;;;27.66;64.42;99426.78;12214887;19;20014;-82
2022/06/23 08:52:27;;;;;;;10.85;7.75;;;;;;;27.89;61.79;99432.53;12218819;19;19999;-82
2022/06/23 08:56:37;;;;;;;14.55;7.30;;;;;;;28.17;61.94;99427.41;12196167;19;20081;-83
2022/06/23 09:00:54;;;;;;;13.27;7.90;;;;;;;28.62;60.77;99431.41;12220611;19;20006;-82
2022/06/23 09:05:12;;;;;;;14.05;8.02;;;;;;;29.01;58.62;99425.50;12193064;19;20081;-82
2022/06/23 09:09:26;;;;;;;17.67;7.88;;;;;;;29.02;58.08;99426.34;12209336;19;20034;-83
2022/06/23 09:14:07;;;;;;;14.82;7.95;;;;;;;29.07;58.51;99426.84;12196643;19;20051;-85
2022/06/23 09:18:42;;;;;;;12.07;9.57;;;;;;;29.48;57.00;99420.47;12211318;19;20006;-82
2022/06/23 09:23:11;;;;;;;15.93;8.18;;;;;;;29.42;55.74;99425.69;12187210;19;20082;-82
2022/06/23 09:27:42;;;;;;;14.55;7.88;;;;;;;29.56;55.33;99418.53;12211190;19;20006;-82
2022/06/23 09:31:58;;;;;;;18.55;9.25;;;;;;;29.55;54.74;99405.56;12191406;19;20015;-81
2022/06/23 09:36:02;;;;;;;14.10;7.93;;;;;;;29.76;54.37;99405.81;12211763;19;20017;-82
2022/06/23 09:40:16;;;;;;;18.95;8.18;;;;;;;30.22;53.01;99401.81;12215737;19;20354;-82
2022/06/23 09:44:31;;;;;;;16.77;8.60;;;;;;;30.23;52.13;99401.44;12184275;19;20471;-82
2022/06/23 09:49:15;;;;;;;17.73;8.63;;;;;;;30.20;52.93;99388.81;12211587;19;20017;-83
2022/06/23 09:54:01;;;;;;;15.73;8.50;;;;;;;30.41;51.65;99385.34;12180770;19;20082;-83
2022/06/23 09:58:18;;;;;;;13.45;8.98;;;;;;;30.54;51.52;99383.00;12207991;19;20014;-83
2022/06/23 10:02:29;;;;;;;18.00;8.80;;;;;;;30.73;50.67;99384.75;12186434;19;20108;-83
2022/06/23 10:06:44;;;;;;;15.75;8.93;;;;;;;30.99;49.67;99383.72;12217472;19;20014;-83
2022/06/23 10:11:06;;;;;;;16.42;7.85;;;;;;;30.68;48.99;99385.13;12212407;19;20068;-83
2022/06/23 10:15:27;;;;;;;;;;;;;;;30.82;48.30;99382.41;12214353;19;20013;-82
2022/06/23 10:19:43;;;;;;;14.18;7.07;;;;;;;31.26;47.94;99384.25;12213145;19;19908;-83
2022/06/23 10:24:05;;;;;;;12.65;7.88;;;;;;;31.65;47.57;99380.75;12238772;19;20018;-82
2022/06/23 10:28:32;;;;;;;12.83;8.83;;;;;;;32.10;45.98;99383.31;12242981;19;20010;-81
2022/06/23 10:33:01;;;;;;;15.63;9.65;;;;;;;32.33;45.68;99371.50;12217554;19;20007;-83
2022/06/23 10:37:40;;;;;;;12.57;8.73;;;;;;;32.90;44.07;99374.31;12246819;19;20011;-80
2022/06/23 10:41:58;;;;;;;14.13;7.75;;;;;;;33.46;42.81;99360.22;12151010;19;2004664;-80
2022/06/23 10:46:06;;;;;;;10.48;7.50;;;;;;;33.41;42.28;99363.53;12228889;19;20006;-82
2022/06/23 10:50:26;;;;;;;17.15;8.27;;;;;;;33.18;42.19;99356.28;12210285;19;20050;-84
2022/06/23 10:54:56;;;;;;;14.57;9.85;;;;;;;33.16;41.78;99358.72;12211766;19;20014;-85
2022/06/23 10:59:22;;;;;;;16.40;8.80;;;;;;;33.43;41.91;99352.47;12183939;19;20468;-85
2022/06/23 11:03:45;;;;;;;13.43;6.72;;;;;;;33.44;40.84;99340.66;12208474;19;20011;-85
2022/06/23 11:08:06;;;;;;;11.85;7.30;;;;;;;33.32;40.65;99338.28;12182835;19;20006;-85
2022/06/23 11:12:27;;;;;;;8.75;6.50;;;;;;;33.31;40.71;99337.44;12215603;19;20023;-86
2022/06/23 11:16:36;;;;;;;;;;;;;;;33.63;40.42;99324.25;12200193;19;20090;-80
2022/06/23 11:20:54;;;;;;;13.05;7.10;;;;;;;33.44;41.04;99328.44;12215394;19;19923;-84
2022/06/23 11:25:11;;;;;;;17.05;6.65;;;;;;;33.81;39.59;99316.38;12219132;19;20010;-86
2022/06/23 11:29:33;;;;;;;12.10;6.00;;;;;;;33.77;38.14;99322.09;12199235;19;20011;-85
2022/06/23 11:33:36;;;;;;;8.82;5.18;;;;;;;33.77;37.58;99307.81;12213953;19;20013;-82
2022/06/23 11:38:32;;;;;;;11.55;5.45;;;;;;;33.92;38.12;99296.28;12184763;19;20010;-85
2022/06/23 11:43:05;;;;;;;13.95;6.90;;;;;;;34.19;38.01;99290.75;12223163;19;20006;-84
2022/06/23 11:47:32;;;;;;;11.95;6.50;;;;;;;34.33;37.23;99284.91;12192076;19;20015;-84
2022/06/23 11:51:55;;;;;;;10.50;6.20;;;;;;;34.54;36.54;99278.19;12200089;19;20010;-82
2022/06/23 11:56:01;;;;;;;12.10;6.80;;;;;;;34.91;36.21;99270.78;12189479;19;20011;-84
2022/06/23 12:00:15;;;;;;;12.70;6.88;;;;;;;35.20;35.84;99262.66;12208866;19;20016;-85
2022/06/23 12:04:43;;;;;;;7.90;5.78;;;;;;;35.27;34.24;99248.22;12195726;19;20018;-84
2022/06/23 12:08:53;;;;;;;9.98;6.55;;;;;;;35.25;35.29;99249.91;12216400;19;20009;-83
2022/06/23 12:12:59;;;;;;;16.27;7.75;;;;;;;35.35;35.14;99252.63;12214570;19;20006;-85
2022/06/23 12:17:24;;;;;;;9.27;6.00;;;;;;;35.70;34.17;99243.94;12187284;19;20013;-84
2022/06/23 12:21:47;;;;;;;11.82;6.47;;;;;;;36.62;32.38;99241.47;12219576;19;20015;-86
2022/06/23 12:26:14;;;;;;;10.27;6.38;;;;;;;37.75;31.32;99241.41;12197392;19;20108;-82
2022/06/23 12:30:19;;;;;;;8.93;4.93;;;;;;;38.66;28.89;99227.91;12222134;19;20007;-83
2022/06/23 12:34:52;;;;;;;9.98;4.55;;;;;;;39.57;27.27;99218.97;12191943;19;20047;-85
2022/06/23 12:39:04;;;;;;;15.73;5.03;;;;;;;39.72;26.69;99225.06;12216913;19;20020;-82
2022/06/23 12:43:19;;;;;;;7.57;3.95;;;;;;;40.37;25.67;99217.09;12219387;19;20099;-82
2022/06/23 12:47:52;;;;;;;9.35;3.75;;;;;;;41.26;23.35;99219.50;12200018;19;20026;-84
2022/06/23 12:52:03;;;;;;;9.82;4.15;;;;;;;41.53;23.49;99207.28;12218207;19;20026;-83
2022/06/23 12:56:16;;;;;;;;;;;;;;;39.85;24.79;99194.16;12202691;19;20014;-79
2022/06/23 13:00:47;;;;;;;9.43;4.00;;;;;;;38.04;26.40;99196.31;12243992;19;20249;-80
2022/06/23 13:04:56;;;;;;;7.32;3.72;;;;;;;36.97;28.23;99193.13;12206161;19;20014;-80
2022/06/23 13:09:22;;;;;;;10.52;4.45;;;;;;;38.07;27.31;99183.09;12231175;19;20006;-81
2022/06/23 13:13:56;;;;;;;8.80;3.90;;;;;;;39.85;24.51;99168.19;12206515;19;20025;-81
2022/06/23 13:18:02;;;;;;;9.32;3.55;;;;;;;40.91;23.76;99169.69;12206203;19;20014;-82
2022/06/23 13:22:07;;;;;;;6.28;3.97;;;;;;;42.09;22.70;99156.13;12203131;19;20022;-82
2022/06/23 13:26:17;;;;;;;10.55;3.60;;;;;;;42.83;21.43;99153.97;12179699;19;20373;-82
2022/06/23 13:30:23;;;;;;;13.43;4.35;;;;;;;43.18;21.14;99147.75;12202115;19;20047;-82
2022/06/23 13:34:30;;;;;;;8.48;3.47;;;;;;;43.39;20.61;99143.78;12183264;19;20014;-82
2022/06/23 13:38:51;;;;;;;6.25;3.22;;;;;;;44.19;19.47;99141.34;12204384;19;20081;-80
2022/06/23 13:43:15;;;;;;;8.18;3.13;;;;;;;44.54;19.45;99141.53;12202860;19;20007;-83
2022/06/23 13:47:30;;;;;;;8.07;3.47;;;;;;;44.87;19.15;99133.94;12188670;19;20107;-83
2022/06/23 13:51:48;;;;;;;7.93;3.33;;;;;;;44.21;19.84;99132.94;12214759;19;20548;-82
2022/06/23 13:56:19;;;;;;;6.07;3.33;;;;;;;43.03;20.18;99115.75;12185277;19;20011;-83
2022/06/23 14:00:30;;;;;;;7.28;3.33;;;;;;;41.73;21.53;99113.47;12209347;19;20010;-81
2022/06/23 14:04:46;;;;;;;7.15;3.25;;;;;;;42.93;20.31;99111.31;12183099;19;20010;-82
2022/06/23 14:09:02;;;;;;;7.70;3.13;;;;;;;44.51;19.48;99096.03;12207147;19;20009;-82
2022/06/23 14:13:16;;;;;;;6.20;2.60;;;;;;;45.79;18.63;99094.88;12210307;19;20415;-82
2022/06/23 14:17:32;;;;;;;8.27;3.40;;;;;;;46.26;17.80;99081.94;12190348;19;20487;-81
2022/06/23 14:21:55;;;;;;;8.18;3.00;;;;;;;45.95;17.84;99079.75;12206999;19;20027;-81
2022/06/23 14:26:08;;;;;;;6.38;3.03;;;;;;;44.21;19.65;99074.06;12185974;19;20017;-83
2022/06/23 14:30:25;;;;;;;6.38;2.72;;;;;;;41.30;22.15;99075.63;12212062;19;20002;-82
2022/06/23 14:34:54;;;;;;;6.32;3.10;;;;;;;42.35;21.01;99061.06;12183702;19;20002;-82
2022/06/23 14:39:30;;;;;;;7.95;3.15;;;;;;;43.79;19.39;99054.72;12208042;19;20450;-85
2022/06/23 14:43:50;;;;;;;7.57;3.78;;;;;;;44.97;18.98;99051.91;12185944;19;20023;-84
2022/06/23 14:48:19;;;;;;;5.85;3.03;;;;;;;45.38;17.99;99049.09;12205864;19;20468;-82
2022/06/23 14:52:39;;;;;;;8.07;3.47;;;;;;;46.40;17.49;99038.66;12184292;19;20007;-83
2022/06/23 14:56:55;;;;;;;5.88;3.08;;;;;;;46.02;17.33;99044.38;12198484;19;20018;-83
2022/06/23 15:01:07;;;;;;;7.03;2.83;;;;;;;44.80;18.37;99033.41;12211747;19;20900;-82
2022/06/23 15:05:27;;;;;;;7.18;3.22;;;;;;;42.32;20.21;99038.88;12171277;19;20003;-84
2022/06/23 15:09:47;;;;;;;;;;;;;;;39.65;22.30;99046.53;12205485;19;20409;-83
2022/06/23 15:14:04;;;;;;;8.77;3.40;;;;;;;37.91;24.25;99045.88;12188196;19;19919;-81
2022/06/23 15:18:12;;;;;;;10.70;3.60;;;;;;;37.42;24.92;99037.34;12205184;19;20022;-84
2022/06/23 15:26:54;;;;;;;9.50;3.33;;;;;;;40.13;22.72;99029.13;12177995;19;20010;-83
2022/06/23 15:31:20;;;;;;;8.90;3.53;;;;;;;38.56;24.64;99030.44;12205085;19;20507;-84
2022/06/23 15:35:44;;;;;;;10.23;3.53;;;;;;;37.07;25.90;99024.75;12180452;19;20032;-81
2022/06/23 15:40:15;;;;;;;7.55;3.50;;;;;;;36.04;26.61;99026.66;12215082;19;20014;-83
2022/06/23 15:44:40;;;;;;;10.88;3.50;;;;;;;35.39;27.70;99021.34;12173038;19;20002;-83
2022/06/23 15:48:51;;;;;;;8.10;3.85;;;;;;;35.00;27.79;99018.34;12207056;19;20014;-81
2022/06/23 15:53:23;;;;;;;7.45;3.55;;;;;;;34.58;28.63;99014.94;12189468;19;20014;-85
2022/06/23 15:57:37;;;;;;;7.40;3.58;;;;;;;34.24;29.03;99002.31;12201686;19;20038;-81
2022/06/23 16:02:04;;;;;;;6.57;3.00;;;;;;;34.13;29.25;99004.53;12188886;19;20033;-83
2022/06/23 16:06:12;;;;;;;7.13;3.05;;;;;;;33.89;29.81;98997.88;12202687;19;20356;-82
2022/06/23 16:10:26;;;;;;;8.00;3.22;;;;;;;33.65;30.16;98996.13;12216977;19;20014;-82
2022/06/23 16:14:43;;;;;;;9.00;3.38;;;;;;;33.43;30.92;98996.31;12188213;19;20015;-83
2022/06/23 16:18:52;;;;;;;9.05;2.90;;;;;;;33.35;31.18;98997.66;12216841;19;20038;-82
2022/06/23 16:23:21;;;;;;;7.20;3.00;;;;;;;33.36;31.55;98991.50;12195927;19;20455;-83
2022/06/23 16:27:47;;;;;;;7.13;3.00;;;;;;;33.36;31.48;98993.56;12214577;19;20023;-83
2022/06/23 16:32:06;;;;;;;5.78;2.63;;;;;;;33.42;31.52;98983.28;12194237;19;20053;-84
2022/06/23 16:36:10;;;;;;;6.25;2.72;;;;;;;33.34;31.26;98984.59;12211235;19;20076;-84
2022/06/23 16:40:26;;;;;;;9.30;2.70;;;;;;;33.27;31.96;98974.06;12220497;19;20018;-85
2022/06/23 16:44:40;;;;;;;7.85;2.80;;;;;;;33.11;32.40;98968.94;12196222;19;20025;-84
2022/06/23 16:48:57;;;;;;;6.45;3.10;;;;;;;32.80;32.73;98961.44;12213229;19;20389;-83
2022/06/23 16:53:04;;;;;;;7.18;2.80;;;;;;;32.54;32.97;98966.53;12197714;19;20017;-84
2022/06/23 16:57:18;;;;;;;10.05;2.85;;;;;;;32.45;33.89;98969.03;12210930;19;20042;-83
2022/06/23 17:01:31;;;;;;;8.83;2.70;;;;;;;32.42;34.34;98961.28;12191874;19;20014;-82
2022/06/23 17:05:38;;;;;;;6.28;2.67;;;;;;;32.63;33.88;98955.47;12205500;19;20031;-83
2022/06/23 17:09:43;;;;;;;5.22;2.65;;;;;;;32.85;33.76;98946.72;12207644;19;20006;-83
2022/06/23 17:13:49;;;;;;;6.20;2.70;;;;;;;32.81;33.96;98945.94;12180308;19;20492;-84
2022/06/23 17:17:54;;;;;;;5.55;3.13;;;;;;;32.66;34.17;98948.94;12201516;19;20006;-83
2022/06/23 17:22:06;;;;;;;5.10;2.70;;;;;;;32.43;34.31;98945.84;12201636;19;20011;-83
2022/06/23 17:26:18;;;;;;;;;;;;;;;32.14;34.05;98950.91;12186649;19;20013;-83
2022/06/23 17:30:32;;;;;;;6.18;2.25;;;;;;;31.89;34.59;98940.44;12204743;19;19939;-82
2022/06/23 17:35:22;;;;;;;7.38;2.70;;;;;;;31.63;34.83;98944.63;12183682;19;20093;-82
2022/06/23 17:43:58;;;;;;;4.85;2.15;;;;;;;31.21;36.41;98942.72;12172207;19;20105;-82
2022/06/23 17:48:07;;;;;;;4.35;2.47;;;;;;;30.94;37.24;98946.00;12206979;19;20073;-83
2022/06/23 17:52:24;;;;;;;6.70;2.35;;;;;;;30.84;37.75;98941.13;12213473;19;20338;-84
2022/06/23 17:56:35;;;;;;;4.05;2.33;;;;;;;30.77;38.06;98946.81;12178351;19;20011;-83
2022/06/23 18:00:49;;;;;;;5.20;2.20;;;;;;;30.64;37.93;98949.25;12206975;19;20010;-83
2022/06/23 18:04:56;;;;;;;5.40;2.15;;;;;;;30.49;38.12;98953.28;12173658;19;20011;-84
2022/06/23 18:09:25;;;;;;;5.15;2.45;;;;;;;30.30;38.19;98963.81;12199143;19;20010;-84
2022/06/23 18:14:02;;;;;;;4.13;2.20;;;;;;;30.15;39.25;98962.94;12183692;19;20027;-86
2022/06/23 18:34:42;;;;;;;5.93;2.40;;;;;;;29.80;39.95;98957.16;12188644;19;20381;-84
2022/06/23 18:44:12;;;;;;;3.78;2.17;;;;;;;29.13;41.53;98955.59;12190116;19;20018;-85
2022/06/23 18:48:33;;;;;;;4.13;2.00;;;;;;;28.85;41.47;98948.47;12217633;19;20081;-84
2022/06/23 18:52:47;;;;;;;6.97;2.10;;;;;;;28.56;42.29;98945.44;12184231;19;20011;-83
2022/06/23 18:57:06;;;;;;;4.18;2.30;;;;;;;28.31;43.19;98948.00;12202929;19;20035;-84
2022/06/23 19:01:28;;;;;;;2.50;2.00;;;;;;;28.09;43.67;98932.00;12203544;19;20010;-84
2022/06/23 19:05:50;;;;;;;8.23;2.28;;;;;;;27.84;44.47;98928.91;12193126;19;20010;-84
2022/06/23 19:09:52;;;;;;;3.97;2.17;;;;;;;27.62;44.63;98933.47;12212924;19;20015;-83
2022/06/23 19:14:03;;;;;;;4.55;2.08;;;;;;;27.40;45.15;98938.88;12181315;19;20023;-83
2022/06/23 19:18:49;;;;;;;4.43;2.10;;;;;;;27.17;45.38;98936.13;12213807;19;20011;-83
2022/06/23 19:23:16;;;;;;;5.68;1.92;;;;;;;26.93;46.15;98931.72;12200802;19;20102;-84
2022/06/23 19:27:47;;;;;;;4.07;1.90;;;;;;;26.76;46.29;98932.25;12236584;19;20384;-83
2022/06/23 19:42:12;;;;;;;4.65;1.88;;;;;;;26.18;46.73;98947.41;12248041;19;20017;-84
2022/06/23 19:46:54;;;;;;;7.38;1.98;;;;;;;26.01;47.07;98943.03;12211640;19;20195;-85
2022/06/23 19:51:31;;;;;;;6.97;2.00;;;;;;;25.89;47.34;98952.50;12234492;19;20027;-83
2022/06/23 19:56:13;;;;;;;3.95;1.88;;;;;;;25.78;47.69;98954.25;12205376;19;20014;-84
2022/06/23 20:00:50;;;;;;;6.13;2.13;;;;;;;25.68;47.22;98947.22;12220073;19;20015;-85
2022/06/23 20:04:57;;;;;;;7.63;1.90;;;;;;;25.59;47.68;98945.81;12192404;19;20014;-84
2022/06/23 20:09:17;;;;;;;3.10;1.50;;;;;;;25.51;47.61;98941.19;12226616;19;20014;-84
2022/06/23 20:13:33;;;;;;;2.95;1.60;;;;;;;25.42;47.80;98939.41;12197175;19;20011;-85
2022/06/23 20:33:23;;;;;;;4.10;2.10;;;;;;;25.05;49.18;98941.00;12206884;19;20044;-85
2022/06/23 20:38:03;;;;;;;4.70;1.98;;;;;;;24.97;49.45;98940.00;12189840;19;20496;-85
2022/06/23 20:42:12;;;;;;;6.38;2.10;;;;;;;24.93;49.49;98939.91;12214529;19;20181;-85
2022/06/23 20:46:25;;;;;;;4.38;1.80;;;;;;;24.90;50.02;98940.66;12210723;19;20010;-85
2022/06/23 20:50:31;;;;;;;5.85;1.95;;;;;;;24.87;49.80;98941.38;12190577;19;20353;-84
2022/06/23 20:54:53;;;;;;;4.63;1.80;;;;;;;24.86;50.14;98939.75;12203557;19;20054;-84
2022/06/23 21:04:24;;;;;;;4.38;1.70;;;;;;;24.79;50.90;98940.38;12090353;19;2004758;-84
2022/06/23 21:08:32;;;;;;;6.50;2.38;;;;;;;24.79;50.93;98951.66;12187598;19;20110;-83
2022/06/23 21:12:38;;;;;;;4.10;2.10;;;;;;;24.79;51.22;98943.22;12211346;19;20010;-85
2022/06/23 21:17:06;;;;;;;5.93;2.10;;;;;;;24.79;51.24;98942.41;12187822;19;20006;-85
2022/06/23 21:21:20;;;;;;;4.20;1.90;;;;;;;24.76;51.66;98941.13;12209715;19;20007;-86
2022/06/23 21:25:26;;;;;;;5.22;2.55;;;;;;;24.75;51.60;98944.31;12213303;19;20472;-85
2022/06/23 21:35:10;;;;;;;6.32;2.38;;;;;;;24.70;52.32;98931.31;12199607;19;20598;-85
2022/06/23 21:40:16;;;;;;;6.63;2.30;;;;;;;24.67;52.48;98931.25;12216835;19;20011;-86
2022/06/23 21:50:57;;;;;;;5.60;2.35;;;;;;;24.61;52.77;98927.88;12188475;19;20020;-84
2022/06/23 21:55:52;;;;;;;;;;;;;;;;;;;;;
2022/06/23 22:10:16;;;;;;;7.30;2.30;;;;;;;24.65;53.32;98930.78;12209918;19;20098;-86
2022/06/23 22:30:21;;;;;;;14.77;3.10;;;;;;;25.05;55.62;99042.47;12169186;19;2004354;-84